createdAt,value
2023-04-11T00:01:14.674Z,70.10
2023-04-11T00:04:20.637Z,71.10
2023-04-11T00:07:23.852Z,70.60
2023-04-11T00:10:26.695Z,71.10
2023-04-11T00:13:29.510Z,71.20
2023-04-11T00:16:34.355Z,71.00
2023-04-11T00:19:37.552Z,69.10
2023-04-11T00:22:40.610Z,69.20
2023-04-11T00:25:43.610Z,70.60
2023-04-11T00:28:46.414Z,69.60
2023-04-11T00:31:52.764Z,68.00
2023-04-11T00:34:56.239Z,69.20
2023-04-11T00:38:01.264Z,68.70
2023-04-11T00:41:04.523Z,70.10
2023-04-11T00:44:07.464Z,69.10
2023-04-11T00:47:11.824Z,70.20
2023-04-11T00:50:15.888Z,68.90
2023-04-11T00:53:19.106Z,68.50
2023-04-11T00:56:23.050Z,69.00
2023-04-11T00:59:26.695Z,69.40
2023-04-11T01:02:32.078Z,69.00
2023-04-11T01:05:36.312Z,69.00
2023-04-11T01:08:41.157Z,68.40
2023-04-11T01:11:44.121Z,68.50
2023-04-11T01:14:47.786Z,68.90
2023-04-11T01:17:52.941Z,69.20
2023-04-11T01:20:55.923Z,68.70
2023-04-11T01:24:03.671Z,68.60
2023-04-11T01:27:06.472Z,69.00
2023-04-11T01:30:12.363Z,70.70
2023-04-11T01:33:17.303Z,71.20
2023-04-11T01:36:20.365Z,72.60
2023-04-11T01:39:24.764Z,73.00
2023-04-11T01:42:29.393Z,74.20
2023-04-11T01:45:33.411Z,74.10
2023-04-11T01:48:36.376Z,72.20
2023-04-11T01:51:39.274Z,75.70
2023-04-11T01:54:43.434Z,74.80
2023-04-11T01:57:46.224Z,74.70
2023-04-11T02:00:49.031Z,72.10
2023-04-11T02:03:52.860Z,74.30
2023-04-11T02:06:55.768Z,74.60
2023-04-11T02:10:01.013Z,76.50
2023-04-11T02:13:03.837Z,78.40
2023-04-11T02:16:11.562Z,79.00
2023-04-11T02:19:14.437Z,76.50
2023-04-11T02:22:17.297Z,75.80
2023-04-11T02:25:21.501Z,76.30
2023-04-11T02:28:24.297Z,74.10
2023-04-11T02:31:27.539Z,75.50
2023-04-11T02:34:30.812Z,71.70
2023-04-11T02:37:33.600Z,70.30
2023-04-11T02:40:37.732Z,70.30
2023-04-11T02:43:40.577Z,69.10
2023-04-11T02:46:43.423Z,69.50
2023-04-11T02:49:46.224Z,71.50
2023-04-11T02:52:49.836Z,68.50
2023-04-11T02:55:54.030Z,67.80
2023-04-11T02:58:57.192Z,69.00
2023-04-11T03:02:00.916Z,69.00
2023-04-11T03:05:04.587Z,68.90
2023-04-11T03:08:09.033Z,68.90
2023-04-11T03:11:13.249Z,67.90
2023-04-11T03:14:16.243Z,69.10
2023-04-11T03:17:19.223Z,68.60
2023-04-11T03:20:22.018Z,68.50
2023-04-11T03:23:24.799Z,67.90
2023-04-11T03:26:28.992Z,68.40
2023-04-11T03:29:31.903Z,67.90
2023-04-11T03:32:34.750Z,66.60
2023-04-11T03:35:37.730Z,66.00
2023-04-11T03:38:40.632Z,65.30
2023-04-11T03:41:44.903Z,66.20
2023-04-11T03:44:47.679Z,66.70
2023-04-11T03:47:50.594Z,68.00
2023-04-11T03:50:53.924Z,64.90
2023-04-11T03:53:56.697Z,65.10
2023-04-11T03:57:01.098Z,64.30
2023-04-11T04:00:05.743Z,65.30
2023-04-11T04:03:08.689Z,65.70
2023-04-11T04:06:11.636Z,66.70
2023-04-11T04:09:14.410Z,66.30
2023-04-11T04:12:18.711Z,64.60
2023-04-11T04:15:21.583Z,63.50
2023-04-11T04:18:24.424Z,63.40
2023-04-11T04:21:32.469Z,62.60
2023-04-11T04:24:38.350Z,62.80
2023-04-11T04:27:44.401Z,63.20
2023-04-11T04:30:50.011Z,63.00
2023-04-11T04:33:52.881Z,63.20
2023-04-11T04:36:59.467Z,63.20
2023-04-11T04:40:07.720Z,66.00
2023-04-11T04:43:18.406Z,66.30
2023-04-11T04:46:21.464Z,66.50
2023-04-11T04:49:24.483Z,67.10
2023-04-11T04:52:28.530Z,65.80
2023-04-11T04:55:31.288Z,66.50
2023-04-11T04:58:35.645Z,66.00
2023-04-11T05:01:39.875Z,67.30
2023-04-11T05:04:44.724Z,68.50
2023-04-11T05:07:48.296Z,68.80
2023-04-11T05:10:51.057Z,70.00
2023-04-11T05:13:55.984Z,71.00
2023-04-11T05:16:59.149Z,72.50
2023-04-11T05:20:02.035Z,75.90
2023-04-11T05:23:04.838Z,79.00
2023-04-11T05:26:08.024Z,82.00
2023-04-11T05:29:12.544Z,84.30
2023-04-11T05:32:15.356Z,84.70
2023-04-11T05:35:18.161Z,85.00
2023-04-11T05:38:21.547Z,84.70
2023-04-11T05:41:24.305Z,83.80
2023-04-11T05:44:28.931Z,83.90
2023-04-11T05:47:32.164Z,82.10
2023-04-11T05:50:35.229Z,82.60
2023-04-11T05:53:38.053Z,83.00
2023-04-11T05:56:42.351Z,83.80
2023-04-11T05:59:49.746Z,85.90
2023-04-11T06:02:53.002Z,88.40
2023-04-11T06:05:55.936Z,89.60
2023-04-11T06:08:58.750Z,90.30
2023-04-11T06:12:01.705Z,90.40
2023-04-11T06:15:07.085Z,90.40
2023-04-11T06:18:09.939Z,90.20
2023-04-11T06:21:12.714Z,90.40
2023-04-11T06:24:18.098Z,90.20
2023-04-11T06:27:20.888Z,90.50
2023-04-11T06:30:25.289Z,90.30
2023-04-11T06:33:28.135Z,90.70
2023-04-11T06:36:31.396Z,91.20
2023-04-11T06:39:34.718Z,90.60
2023-04-11T06:42:37.481Z,91.50
2023-04-11T06:45:41.657Z,92.40
2023-04-11T06:48:44.444Z,92.80
2023-04-11T06:51:49.176Z,93.90
2023-04-11T06:54:51.972Z,94.90
2023-04-11T06:57:55.035Z,95.10
2023-04-11T07:00:59.180Z,94.80
2023-04-11T07:04:02.527Z,95.30
2023-04-11T07:07:05.698Z,95.70
2023-04-11T07:10:09.886Z,96.40
2023-04-11T07:13:12.679Z,96.90
2023-04-11T07:16:16.868Z,98.00
2023-04-11T07:19:19.667Z,98.40
2023-04-11T07:22:22.540Z,98.90
2023-04-11T07:25:30.476Z,99.30
2023-04-11T07:28:33.350Z,99.90
2023-04-11T07:31:38.134Z,99.90
2023-04-11T07:34:40.965Z,99.90
2023-04-11T07:37:43.841Z,99.90
2023-04-11T07:40:46.633Z,99.90
2023-04-11T07:43:49.439Z,99.90
2023-04-11T07:46:53.551Z,99.90
2023-04-11T07:49:56.326Z,99.90
2023-04-11T07:52:59.231Z,99.90
2023-04-11T07:56:02.076Z,99.90
2023-04-11T07:59:04.943Z,99.90
2023-04-11T08:02:09.244Z,99.90
2023-04-11T08:05:12.368Z,99.90
2023-04-11T08:08:15.253Z,99.90
2023-04-11T08:11:18.060Z,99.90
2023-04-11T08:14:20.907Z,99.90
2023-04-11T08:17:29.229Z,99.50
2023-04-11T08:20:32.314Z,98.00
2023-04-11T08:23:35.248Z,97.90
2023-04-11T08:26:38.046Z,97.90
2023-04-11T08:29:40.839Z,98.40
2023-04-11T08:32:45.160Z,98.60
2023-04-11T08:35:48.226Z,98.80
2023-04-11T08:38:51.049Z,98.50
2023-04-11T08:41:53.840Z,98.20
2023-04-11T08:44:58.069Z,98.10
2023-04-11T08:48:02.395Z,97.00
2023-04-11T08:51:05.572Z,96.20
2023-04-11T08:54:09.758Z,96.50
2023-04-11T08:57:21.885Z,97.10
2023-04-11T09:00:25.525Z,97.00
2023-04-11T09:03:31.584Z,96.10
2023-04-11T09:06:35.028Z,96.80
2023-04-11T09:09:39.243Z,95.80
2023-04-11T09:12:42.020Z,95.40
2023-04-11T09:15:45.215Z,95.60
2023-04-11T09:18:49.487Z,95.70
2023-04-11T09:21:53.497Z,95.30
2023-04-11T09:25:03.467Z,95.60
2023-04-11T09:28:11.131Z,96.00
2023-04-11T09:31:14.125Z,94.50
2023-04-11T09:34:25.937Z,94.80
2023-04-11T09:37:28.775Z,94.40
2023-04-11T09:40:42.292Z,93.70
2023-04-11T09:43:50.699Z,92.50
2023-04-11T09:47:00.603Z,93.30
2023-04-11T09:50:05.053Z,93.10
2023-04-11T09:53:09.985Z,93.90
2023-04-11T09:56:13.203Z,94.10
2023-04-11T09:59:16.400Z,93.40
2023-04-11T10:02:19.272Z,93.00
2023-04-11T10:05:27.870Z,92.70
2023-04-11T10:08:33.849Z,92.10
2023-04-11T10:11:36.982Z,91.90
2023-04-11T10:14:43.451Z,92.40
2023-04-11T10:18:10.878Z,92.00
2023-04-11T10:21:42.749Z,91.90
2023-04-11T10:25:17.655Z,92.70
2023-04-11T10:28:34.448Z,91.70
2023-04-11T10:32:02.227Z,92.10
2023-04-11T10:35:24.727Z,91.80
2023-04-11T10:38:48.266Z,91.70
2023-04-11T10:41:51.225Z,91.30
2023-04-11T10:45:15.421Z,91.40
2023-04-11T10:48:18.218Z,91.20
2023-04-11T10:51:25.015Z,90.40
2023-04-11T10:54:29.507Z,90.10
2023-04-11T10:58:05.619Z,90.20
2023-04-11T11:01:26.519Z,91.10
2023-04-11T11:04:36.616Z,91.10
2023-04-11T11:07:40.887Z,88.00
2023-04-11T11:10:47.187Z,88.60
2023-04-11T11:13:52.299Z,87.00
2023-04-11T11:16:55.238Z,85.90
2023-04-11T11:19:58.064Z,87.80
2023-04-11T11:23:05.405Z,87.80
2023-04-11T11:26:09.573Z,87.00
2023-04-11T11:29:12.455Z,87.30
2023-04-11T11:32:22.783Z,88.20
2023-04-11T11:35:26.165Z,88.70
2023-04-11T11:38:30.504Z,87.80
2023-04-11T11:41:35.955Z,90.30
2023-04-11T11:44:39.184Z,89.50
2023-04-11T11:47:42.935Z,88.80
2023-04-11T11:50:46.022Z,88.40
2023-04-11T11:54:03.595Z,89.80
2023-04-11T11:57:07.760Z,87.80
2023-04-11T12:00:11.885Z,88.00
2023-04-11T12:03:18.395Z,89.60
2023-04-11T12:06:21.819Z,88.00
2023-04-11T12:09:31.616Z,84.70
2023-04-11T12:12:37.729Z,84.10
2023-04-11T12:15:41.724Z,80.00
2023-04-11T12:18:45.456Z,82.00
2023-04-11T12:21:48.401Z,82.00
2023-04-11T12:24:53.081Z,80.00
2023-04-11T12:27:57.654Z,79.20
2023-04-11T12:31:00.483Z,81.50
2023-04-11T12:34:03.805Z,79.70
2023-04-11T12:37:06.764Z,79.00
2023-04-11T12:40:11.576Z,78.00
2023-04-11T12:43:15.855Z,79.00
2023-04-11T12:46:19.323Z,78.70
2023-04-11T12:49:22.146Z,78.60
2023-04-11T12:52:25.384Z,78.70
2023-04-11T12:55:28.703Z,78.10
2023-04-11T12:58:33.034Z,76.80
2023-04-11T13:01:36.847Z,76.80
2023-04-11T13:04:39.830Z,75.50
2023-04-11T13:07:44.421Z,75.90
2023-04-11T13:10:47.348Z,76.80
2023-04-11T13:13:52.304Z,76.90
2023-04-11T13:16:55.526Z,76.40
2023-04-11T13:19:58.320Z,75.70
2023-04-11T13:23:01.107Z,76.10
2023-04-11T13:26:04.148Z,77.30
2023-04-11T13:29:08.339Z,76.90
2023-04-11T13:32:11.155Z,76.70
2023-04-11T13:35:13.921Z,75.80
2023-04-11T13:38:16.709Z,75.50
2023-04-11T13:41:19.588Z,74.20
2023-04-11T13:44:23.939Z,74.40
2023-04-11T13:47:26.786Z,74.00
2023-04-11T13:50:29.596Z,76.20
2023-04-11T13:53:32.361Z,75.90
2023-04-11T13:56:36.411Z,74.60
2023-04-11T13:59:40.600Z,75.00
2023-04-11T14:02:44.501Z,76.00
2023-04-11T14:05:47.505Z,75.50
2023-04-11T14:08:51.061Z,75.10
2023-04-11T14:11:53.925Z,74.20
2023-04-11T14:14:58.059Z,74.20
2023-04-11T14:18:01.235Z,77.00
2023-04-11T14:21:05.723Z,79.30
2023-04-11T14:24:09.110Z,79.70
2023-04-11T14:27:11.928Z,80.70
2023-04-11T14:30:16.291Z,81.30
2023-04-11T14:33:19.824Z,81.90
2023-04-11T14:36:22.663Z,81.30
2023-04-11T14:39:25.618Z,81.50
2023-04-11T14:42:28.701Z,82.10
2023-04-11T14:45:33.032Z,83.40
2023-04-11T14:48:35.896Z,84.90
2023-04-11T14:51:38.811Z,85.30
2023-04-11T14:54:41.618Z,86.10
2023-04-11T14:57:46.942Z,85.70
2023-04-11T15:00:51.478Z,86.20
2023-04-11T15:03:54.643Z,86.50
2023-04-11T15:06:59.174Z,86.00
2023-04-11T15:10:02.175Z,87.30
2023-04-11T15:13:04.992Z,87.20
2023-04-11T15:16:09.750Z,86.20
2023-04-11T15:19:12.630Z,86.10
2023-04-11T15:22:15.406Z,86.20
2023-04-11T15:25:18.215Z,85.20
2023-04-11T15:28:21.267Z,85.70
2023-04-11T15:31:27.484Z,85.10
2023-04-11T15:34:30.367Z,84.20
2023-04-11T15:37:33.381Z,83.80
2023-04-11T15:40:36.275Z,82.30
2023-04-11T15:43:39.127Z,82.10
2023-04-11T15:46:43.924Z,83.50
2023-04-11T15:49:47.382Z,84.50
2023-04-11T15:52:50.265Z,85.30
2023-04-11T15:55:53.056Z,84.70
2023-04-11T15:58:55.914Z,85.90
2023-04-11T16:02:00.371Z,86.90
2023-04-11T16:05:03.907Z,86.70
2023-04-11T16:08:07.342Z,86.50
2023-04-11T16:11:10.137Z,86.50
2023-04-11T16:14:13.211Z,86.50
2023-04-11T16:17:18.976Z,87.30
2023-04-11T16:20:22.030Z,86.80
2023-04-11T16:23:24.863Z,87.40
2023-04-11T16:26:27.993Z,87.80
2023-04-11T16:29:30.830Z,88.90
2023-04-11T16:32:35.024Z,89.10
2023-04-11T16:35:37.914Z,89.30
2023-04-11T16:38:40.742Z,89.70
2023-04-11T16:41:44.100Z,90.00
2023-04-11T16:44:46.926Z,90.00
2023-04-11T16:47:51.120Z,89.30
2023-04-11T16:50:53.936Z,89.80
2023-04-11T16:53:57.420Z,88.60
2023-04-11T16:57:01.482Z,88.70
2023-04-11T17:00:16.485Z,89.00
2023-04-11T17:03:21.808Z,88.80
2023-04-11T17:06:24.859Z,88.80
2023-04-11T17:09:27.702Z,89.30
2023-04-11T17:12:31.537Z,88.40
2023-04-11T17:15:35.745Z,88.50
2023-04-11T17:18:40.717Z,88.20
2023-04-11T17:21:43.719Z,87.60
2023-04-11T17:24:46.860Z,87.90
2023-04-11T17:27:49.723Z,88.40
2023-04-11T17:30:53.317Z,89.00
2023-04-11T17:33:57.795Z,88.80
2023-04-11T17:37:00.919Z,89.40
2023-04-11T17:40:11.571Z,89.70
2023-04-11T17:43:14.388Z,89.90
2023-04-11T17:46:17.412Z,89.70
2023-04-11T17:49:21.647Z,90.00
2023-04-11T17:52:24.525Z,89.80
2023-04-11T17:55:27.386Z,90.20
2023-04-11T17:58:30.447Z,90.00
2023-04-11T18:01:33.353Z,90.20
2023-04-11T18:04:37.609Z,90.20
2023-04-11T18:07:41.946Z,90.00
2023-04-11T18:10:44.818Z,89.90
2023-04-11T18:13:50.060Z,89.50
2023-04-11T18:16:53.213Z,89.30
2023-04-11T18:19:57.970Z,89.70
2023-04-11T18:23:01.683Z,89.30
2023-04-11T18:26:04.522Z,89.50
2023-04-11T18:29:07.449Z,89.30
2023-04-11T18:32:10.255Z,89.30
2023-04-11T18:35:15.043Z,89.70
2023-04-11T18:38:17.971Z,90.00
2023-04-11T18:41:21.099Z,89.70
2023-04-11T18:44:24.213Z,89.60
2023-04-11T18:47:27.170Z,89.60
2023-04-11T18:50:31.446Z,89.30
2023-04-11T18:53:36.436Z,88.90
2023-04-11T18:56:40.568Z,89.10
2023-04-11T18:59:44.559Z,88.50
2023-04-11T19:02:50.616Z,88.50
2023-04-11T19:05:55.507Z,89.20
2023-04-11T19:08:58.346Z,89.10
2023-04-11T19:12:01.278Z,89.00
2023-04-11T19:15:04.968Z,89.00
2023-04-11T19:18:10.013Z,88.10
2023-04-11T19:21:14.182Z,87.70
2023-04-11T19:24:17.118Z,88.10
2023-04-11T19:27:21.500Z,88.10
2023-04-11T19:30:24.453Z,87.90
2023-04-11T19:33:27.279Z,87.90
2023-04-11T19:36:31.561Z,88.70
2023-04-11T19:39:38.047Z,88.90
2023-04-11T19:42:41.528Z,88.20
2023-04-11T19:45:44.872Z,89.00
2023-04-11T19:48:47.972Z,89.20
2023-04-11T19:51:52.456Z,89.40
2023-04-11T19:54:55.533Z,90.10
2023-04-11T19:57:58.400Z,89.90
2023-04-11T20:01:01.213Z,90.00
2023-04-11T20:04:04.819Z,90.20
2023-04-11T20:07:09.161Z,90.30
2023-04-11T20:10:12.940Z,90.40
2023-04-11T20:13:16.567Z,90.40
2023-04-11T20:16:22.036Z,90.40
2023-04-11T20:19:27.576Z,90.70
2023-04-11T20:22:31.725Z,90.90
2023-04-11T20:25:35.486Z,90.80
2023-04-11T20:28:39.439Z,90.80
2023-04-11T20:31:42.264Z,90.70
2023-04-11T20:34:45.256Z,90.70
2023-04-11T20:37:49.840Z,90.80
2023-04-11T20:40:52.699Z,91.00
2023-04-11T20:43:56.480Z,91.00
2023-04-11T20:46:59.473Z,91.20
2023-04-11T20:50:04.172Z,91.20
2023-04-11T20:53:08.570Z,91.20
2023-04-11T20:56:11.815Z,91.10
2023-04-11T20:59:14.621Z,91.50
2023-04-11T21:02:17.646Z,91.30
2023-04-11T21:05:22.029Z,91.20
2023-04-11T21:08:26.389Z,91.20
2023-04-11T21:11:29.204Z,91.50
2023-04-11T21:14:33.155Z,91.40
2023-04-11T21:17:39.283Z,91.50
2023-04-11T21:20:42.307Z,91.50
2023-04-11T21:23:46.462Z,91.40
2023-04-11T21:26:49.277Z,91.50
2023-04-11T21:29:52.088Z,91.40
2023-04-11T21:32:55.043Z,91.30
2023-04-11T21:35:57.963Z,91.60
2023-04-11T21:39:02.150Z,91.40
2023-04-11T21:42:05.171Z,91.90
2023-04-11T21:45:09.500Z,91.90
2023-04-11T21:48:12.434Z,92.20
2023-04-11T21:51:16.831Z,92.20
2023-04-11T21:54:21.177Z,92.60
2023-04-11T21:57:23.973Z,92.40
2023-04-11T22:00:27.164Z,92.30
2023-04-11T22:03:30.863Z,92.10
2023-04-11T22:06:33.978Z,92.20
2023-04-11T22:09:38.159Z,92.20
2023-04-11T22:12:42.074Z,92.30
2023-04-11T22:15:45.470Z,92.20
2023-04-11T22:18:48.986Z,92.50
2023-04-11T22:21:55.460Z,92.50
2023-04-11T22:25:00.942Z,92.50
2023-04-11T22:28:04.100Z,92.70
2023-04-11T22:31:07.622Z,92.60
2023-04-11T22:34:10.445Z,92.30
2023-04-11T22:37:13.378Z,92.50
2023-04-11T22:40:22.134Z,92.70
2023-04-11T22:43:25.052Z,92.80
2023-04-11T22:46:28.375Z,92.80
2023-04-11T22:49:32.246Z,92.90
2023-04-11T22:52:35.464Z,93.30
2023-04-11T22:55:39.968Z,93.40
2023-04-11T22:58:42.984Z,93.30
2023-04-11T23:01:45.939Z,93.50
2023-04-11T23:04:48.798Z,93.80
2023-04-11T23:07:51.694Z,93.90
2023-04-11T23:10:55.841Z,93.60
2023-04-11T23:13:59.197Z,93.80
2023-04-11T23:17:02.443Z,93.50
2023-04-11T23:20:12.708Z,93.80
2023-04-11T23:23:15.719Z,93.90
2023-04-11T23:26:20.730Z,94.00
2023-04-11T23:29:23.566Z,93.80
2023-04-11T23:32:26.365Z,94.00
2023-04-11T23:35:31.476Z,93.80
2023-04-11T23:38:34.325Z,93.60
2023-04-11T23:41:38.469Z,93.50
2023-04-11T23:44:41.441Z,93.80
2023-04-11T23:47:44.742Z,93.70
2023-04-11T23:50:48.427Z,93.70
2023-04-11T23:53:51.297Z,93.60
2023-04-11T23:56:55.466Z,93.20
2023-04-11T23:59:58.284Z,93.40
